Time;durP1;ratioP1;P1;durP2;ratioP2;P2;SDS_P1;SDS_P2;PMS_P1;PMS_P2;Temp;Humidity;BMP_temperature;BMP_pressure;BME280_temperature;BME280_humidity;BME280_pressure;Samples;Min_cycle;Max_cycle;Signal;HPM_P1;HPM_P2
2024/02/22 00:00:29;;;;;;;2.10;1.27;;;19.20;59.10;;;;;;5017299;28;20898;-51
2024/02/22 00:02:55;;;;;;;1.70;1.30;;;19.20;59.10;;;;;;5004700;28;20117;-46
2024/02/22 00:05:22;;;;;;;3.15;1.45;;;19.20;59.00;;;;;;5018584;28;20495;-48
2024/02/22 00:07:47;;;;;;;1.77;1.13;;;19.20;59.10;;;;;;5013008;28;20044;-46
2024/02/22 00:10:13;;;;;;;2.38;1.33;;;19.20;59.00;;;;;;5013822;28;20026;-49
2024/02/22 00:12:41;;;;;;;2.22;1.23;;;19.20;59.10;;;;;;5009871;28;20034;-48
2024/02/22 00:15:07;;;;;;;2.08;1.63;;;19.20;59.10;;;;;;5011218;28;20069;-52
2024/02/22 00:17:32;;;;;;;3.47;1.52;;;19.20;59.00;;;;;;5004456;28;20036;-52
2024/02/22 00:19:58;;;;;;;1.75;1.00;;;19.20;59.00;;;;;;5017237;28;20042;-50
2024/02/22 00:22:24;;;;;;;2.42;1.40;;;19.20;59.00;;;;;;5007726;28;20021;-53
2024/02/22 00:24:50;;;;;;;1.73;0.98;;;19.20;59.00;;;;;;5015744;28;20091;-47
2024/02/22 00:27:15;;;;;;;1.98;1.10;;;19.20;59.00;;;;;;5012600;28;20521;-47
2024/02/22 00:29:40;;;;;;;1.73;1.10;;;19.20;59.10;;;;;;5009060;28;20033;-52
2024/02/22 00:32:06;;;;;;;2.13;1.27;;;19.20;59.00;;;;;;5009406;28;20394;-53
2024/02/22 00:34:32;;;;;;;2.35;1.40;;;19.20;59.00;;;;;;5014679;28;20101;-47
2024/02/22 00:36:57;;;;;;;3.22;1.00;;;19.20;59.00;;;;;;5012558;28;20490;-50
2024/02/22 00:39:23;;;;;;;1.50;1.17;;;19.20;59.00;;;;;;5016635;28;20063;-49
2024/02/22 00:41:48;;;;;;;2.38;1.00;;;19.20;58.90;;;;;;5012199;28;20039;-47
2024/02/22 00:44:13;;;;;;;1.83;1.10;;;19.20;59.00;;;;;;5011420;28;20034;-48
2024/02/22 00:46:39;;;;;;;2.35;0.90;;;19.20;58.90;;;;;;5007055;28;20428;-51
2024/02/22 00:49:05;;;;;;;2.05;1.17;;;19.20;59.00;;;;;;5015792;28;20037;-47
2024/02/22 00:51:31;;;;;;;1.80;1.00;;;19.20;59.00;;;;;;5008778;28;20040;-54
2024/02/22 00:53:56;;;;;;;1.83;1.20;;;19.20;59.00;;;;;;5013379;28;20029;-50
2024/02/22 00:56:22;;;;;;;1.63;1.20;;;19.20;59.00;;;;;;5014676;28;20057;-48
2024/02/22 00:58:47;;;;;;;1.08;0.70;;;19.20;59.00;;;;;;5013978;28;20033;-55
2024/02/22 01:01:14;;;;;;;1.17;0.90;;;19.20;58.90;;;;;;5007240;28;20092;-49
2024/02/22 01:03:40;;;;;;;1.55;0.90;;;19.20;59.00;;;;;;5014875;28;20030;-47
2024/02/22 01:06:09;;;;;;;0.82;0.73;;;19.20;59.10;;;;;;5017128;28;20034;-48
2024/02/22 01:08:35;;;;;;;1.42;1.00;;;19.20;59.00;;;;;;5011915;28;20126;-51
2024/02/22 01:11:01;;;;;;;1.77;1.13;;;19.20;59.10;;;;;;5013900;28;20082;-55
2024/02/22 01:13:26;;;;;;;0.88;0.63;;;19.10;59.10;;;;;;5011420;28;20025;-47
2024/02/22 01:15:52;;;;;;;2.22;1.20;;;19.10;59.10;;;;;;4995745;28;20022;-53
2024/02/22 01:18:17;;;;;;;2.10;0.80;;;19.10;59.10;;;;;;5011593;28;20029;-51
2024/02/22 01:20:43;;;;;;;0.98;0.70;;;19.10;59.10;;;;;;5010845;28;20043;-46
2024/02/22 01:23:08;;;;;;;1.48;0.90;;;19.00;59.20;;;;;;5012048;28;20521;-51
2024/02/22 01:25:34;;;;;;;1.90;0.90;;;19.00;59.20;;;;;;5005853;28;20026;-50
2024/02/22 01:27:59;;;;;;;1.67;0.90;;;19.00;59.20;;;;;;5011676;28;20051;-46
2024/02/22 01:30:24;;;;;;;1.63;0.90;;;19.00;59.20;;;;;;5012164;28;20784;-47
2024/02/22 01:32:50;;;;;;;1.30;0.70;;;19.00;59.20;;;;;;5010241;28;20040;-55
2024/02/22 01:35:16;;;;;;;1.33;0.90;;;19.00;59.30;;;;;;5009045;28;20498;-52
2024/02/22 01:37:41;;;;;;;1.05;0.77;;;18.90;59.30;;;;;;5013900;28;20032;-48
2024/02/22 01:40:11;;;;;;;1.17;0.88;;;18.90;59.30;;;;;;5013440;28;20037;-50
2024/02/22 01:42:37;;;;;;;2.33;1.13;;;18.90;59.40;;;;;;5010866;28;20054;-56
2024/02/22 01:45:04;;;;;;;0.98;0.75;;;18.90;59.30;;;;;;5011596;28;20109;-54
2024/02/22 01:47:30;;;;;;;1.23;0.70;;;18.90;59.20;;;;;;5010746;28;20030;-49
2024/02/22 01:49:56;;;;;;;1.50;0.90;;;18.90;59.20;;;;;;5011951;28;20056;-47
2024/02/22 01:52:21;;;;;;;1.80;0.80;;;18.90;59.20;;;;;;5013556;28;20042;-48
2024/02/22 01:54:47;;;;;;;1.48;0.80;;;18.90;59.10;;;;;;4997017;28;20038;-49
2024/02/22 01:57:13;;;;;;;2.53;0.73;;;18.90;59.10;;;;;;5011031;28;20025;-53
2024/02/22 01:59:39;;;;;;;1.50;0.98;;;18.90;59.10;;;;;;5010105;28;20041;-51
2024/02/22 02:02:05;;;;;;;1.83;0.88;;;19.00;59.20;;;;;;5009274;28;20507;-49
2024/02/22 02:04:30;;;;;;;0.95;0.60;;;19.00;59.20;;;;;;5011536;28;20044;-52
2024/02/22 02:06:56;;;;;;;2.80;0.73;;;19.00;59.10;;;;;;5008977;28;20787;-53
2024/02/22 02:09:21;;;;;;;1.10;0.82;;;19.00;59.00;;;;;;5012439;28;20041;-49
2024/02/22 02:11:47;;;;;;;1.65;1.15;;;19.00;58.90;;;;;;5009675;28;20033;-51
2024/02/22 02:14:12;;;;;;;1.20;0.75;;;19.00;59.00;;;;;;5012615;28;20036;-53
2024/02/22 02:16:38;;;;;;;2.45;0.60;;;19.00;58.90;;;;;;5013279;28;20033;-52
2024/02/22 02:19:08;;;;;;;1.92;0.80;;;19.00;58.80;;;;;;5014045;28;20368;-55
2024/02/22 02:22:07;;;;;;;3.05;0.93;;;19.00;58.90;;;;;;5011087;28;20045;-47
2024/02/22 02:24:41;;;;;;;1.20;0.77;;;19.00;58.80;;;;;;5011926;28;20041;-53
2024/02/22 02:27:06;;;;;;;1.38;0.70;;;19.00;59.00;;;;;;5013746;28;20519;-47
2024/02/22 02:29:32;;;;;;;1.45;1.02;;;19.00;58.80;;;;;;5015316;28;20068;-51
2024/02/22 02:31:57;;;;;;;1.55;1.10;;;19.00;58.80;;;;;;5010434;28;20087;-47
2024/02/22 02:34:23;;;;;;;1.05;0.60;;;19.10;58.90;;;;;;5012686;28;20779;-51
2024/02/22 02:36:48;;;;;;;1.27;0.70;;;19.10;58.90;;;;;;5012961;28;20037;-48
2024/02/22 02:39:14;;;;;;;1.40;0.50;;;19.10;58.90;;;;;;5015300;28;20451;-54
2024/02/22 02:41:39;;;;;;;1.13;1.00;;;19.10;58.80;;;;;;5010580;28;20029;-49
2024/02/22 02:44:05;;;;;;;1.52;0.90;;;19.10;58.70;;;;;;5011440;28;20105;-49
2024/02/22 02:46:31;;;;;;;1.98;0.80;;;19.10;58.70;;;;;;5016453;28;20033;-47
2024/02/22 02:48:56;;;;;;;1.20;0.77;;;19.10;58.70;;;;;;5014745;28;20026;-53
2024/02/22 02:51:22;;;;;;;1.77;0.80;;;19.20;58.70;;;;;;5013288;28;20033;-49
2024/02/22 02:53:47;;;;;;;1.08;0.77;;;19.20;58.70;;;;;;5001366;28;20026;-54
2024/02/22 02:56:13;;;;;;;0.90;0.82;;;19.20;58.70;;;;;;5014132;28;20105;-49
2024/02/22 02:58:38;;;;;;;0.73;0.60;;;19.20;58.70;;;;;;5017501;28;20030;-57
2024/02/22 03:01:04;;;;;;;1.40;0.70;;;19.20;58.70;;;;;;5006560;28;20120;-56
2024/02/22 03:03:31;;;;;;;2.00;0.82;;;19.20;58.70;;;;;;5012369;28;20038;-54
2024/02/22 03:05:57;;;;;;;0.80;0.60;;;19.20;58.70;;;;;;5011787;28;20046;-52
2024/02/22 03:08:22;;;;;;;1.05;0.77;;;19.10;58.60;;;;;;5011175;28;20437;-48
2024/02/22 03:10:48;;;;;;;1.45;0.77;;;19.10;58.70;;;;;;5009674;28;20033;-53
2024/02/22 03:13:13;;;;;;;0.93;0.50;;;19.20;58.70;;;;;;5014921;28;20076;-53
2024/02/22 03:15:39;;;;;;;1.35;0.77;;;19.10;58.70;;;;;;5007610;28;20091;-54
2024/02/22 03:18:08;;;;;;;2.05;0.80;;;19.10;58.70;;;;;;5009723;28;20048;-53
2024/02/22 03:20:34;;;;;;;1.40;0.70;;;19.10;58.80;;;;;;5014671;28;20091;-49
2024/02/22 03:23:00;;;;;;;1.05;0.70;;;19.10;58.80;;;;;;5011889;28;20028;-50
2024/02/22 03:25:27;;;;;;;1.17;0.70;;;19.10;58.80;;;;;;5009406;28;20061;-50
2024/02/22 03:27:53;;;;;;;0.90;0.60;;;19.10;58.80;;;;;;5015722;28;20034;-50
2024/02/22 03:30:18;;;;;;;1.67;0.77;;;19.10;58.80;;;;;;5007191;28;20048;-50
2024/02/22 03:32:44;;;;;;;1.67;0.70;;;19.10;58.80;;;;;;5001760;28;20407;-52
2024/02/22 03:35:10;;;;;;;0.70;0.50;;;19.10;59.50;;;;;;5011772;28;20045;-50
2024/02/22 03:37:38;;;;;;;0.70;0.60;;;19.10;58.80;;;;;;5015693;28;20100;-47
2024/02/22 03:40:05;;;;;;;1.13;0.50;;;19.10;58.80;;;;;;5014458;28;20044;-50
2024/02/22 03:42:31;;;;;;;0.50;0.50;;;19.10;58.80;;;;;;5012802;28;20021;-50
2024/02/22 03:44:56;;;;;;;0.93;0.47;;;19.10;58.90;;;;;;5010581;28;20026;-51
2024/02/22 03:47:22;;;;;;;0.70;0.50;;;19.10;58.90;;;;;;5011672;28;20069;-48
2024/02/22 03:49:48;;;;;;;0.75;0.52;;;19.10;58.90;;;;;;5011818;28;20042;-56
2024/02/22 03:52:13;;;;;;;1.15;0.60;;;19.10;58.90;;;;;;5013172;28;20644;-49
2024/02/22 03:54:39;;;;;;;0.90;0.80;;;19.10;59.50;;;;;;5013608;28;20473;-50
2024/02/22 03:57:05;;;;;;;0.82;0.47;;;19.00;58.80;;;;;;5011413;28;20491;-47
2024/02/22 03:59:31;;;;;;;1.20;0.50;;;19.10;58.90;;;;;;5013925;28;20087;-50
2024/02/22 04:01:56;;;;;;;0.57;0.30;;;19.00;58.80;;;;;;5008025;28;20129;-51
2024/02/22 04:04:22;;;;;;;1.20;0.60;;;19.10;58.90;;;;;;5005101;28;20124;-54
2024/02/22 04:06:47;;;;;;;0.70;0.63;;;19.10;58.90;;;;;;5010532;28;20058;-52
2024/02/22 04:09:14;;;;;;;0.85;0.47;;;19.00;58.80;;;;;;5011688;28;20029;-52
2024/02/22 04:11:40;;;;;;;1.30;0.70;;;19.00;58.80;;;;;;5012059;28;20026;-51
2024/02/22 04:14:05;;;;;;;1.85;0.73;;;19.00;58.80;;;;;;5008732;28;20084;-51
2024/02/22 04:16:31;;;;;;;0.60;0.40;;;19.00;58.80;;;;;;5009438;28;20023;-50
2024/02/22 04:18:56;;;;;;;1.10;0.50;;;19.00;58.80;;;;;;5010886;28;20140;-50
2024/02/22 04:21:22;;;;;;;0.82;0.60;;;19.00;58.80;;;;;;5013133;28;20384;-49
2024/02/22 04:23:48;;;;;;;1.00;0.63;;;19.00;58.80;;;;;;4993906;28;20026;-51
2024/02/22 04:26:13;;;;;;;1.30;0.75;;;19.10;58.80;;;;;;5012923;28;20026;-50
2024/02/22 04:28:38;;;;;;;0.90;0.73;;;19.00;58.80;;;;;;5010226;28;20041;-51
2024/02/22 04:31:04;;;;;;;1.00;0.60;;;19.10;58.80;;;;;;5009685;28;20573;-50
2024/02/22 04:33:31;;;;;;;1.02;0.50;;;19.10;58.80;;;;;;5011676;28;20026;-48
2024/02/22 04:35:57;;;;;;;2.45;0.68;;;19.00;58.70;;;;;;5003325;28;20236;-48
2024/02/22 04:38:22;;;;;;;0.82;0.55;;;19.00;58.70;;;;;;5017767;28;20056;-50
2024/02/22 04:40:48;;;;;;;0.90;0.70;;;19.00;58.70;;;;;;5018202;28;20064;-56
2024/02/22 04:43:14;;;;;;;2.88;0.55;;;19.00;58.70;;;;;;5012369;28;20097;-53
2024/02/22 04:45:39;;;;;;;1.13;0.55;;;19.00;58.70;;;;;;5022453;28;20094;-52
2024/02/22 04:48:06;;;;;;;0.88;0.50;;;19.00;58.80;;;;;;5002265;28;20109;-48
2024/02/22 04:50:32;;;;;;;0.90;0.47;;;19.00;58.70;;;;;;5017209;28;20592;-47
2024/02/22 04:52:59;;;;;;;0.60;0.60;;;19.00;58.70;;;;;;5011506;28;20034;-47
2024/02/22 04:55:25;;;;;;;0.57;0.50;;;19.00;59.30;;;;;;5011629;28;20057;-48
2024/02/22 04:57:50;;;;;;;0.90;0.60;;;19.00;58.70;;;;;;5009707;28;20100;-50
2024/02/22 05:00:16;;;;;;;0.50;0.50;;;19.00;58.80;;;;;;5014222;28;20064;-48
2024/02/22 05:02:43;;;;;;;0.45;0.45;;;19.00;58.70;;;;;;4992857;28;20107;-48
2024/02/22 05:05:09;;;;;;;0.75;0.70;;;19.00;59.30;;;;;;5013559;28;20052;-51
2024/02/22 05:07:36;;;;;;;1.30;0.85;;;19.00;58.70;;;;;;5011005;28;20435;-53
2024/02/22 05:10:03;;;;;;;2.72;0.60;;;19.00;58.60;;;;;;5012539;28;20390;-48
2024/02/22 05:12:29;;;;;;;1.98;0.75;;;19.00;58.70;;;;;;4995871;28;20065;-49
2024/02/22 05:14:55;;;;;;;1.17;0.60;;;19.00;58.90;;;;;;5015749;28;20033;-51
2024/02/22 05:17:21;;;;;;;0.40;0.40;;;19.00;59.00;;;;;;5010254;28;20033;-48
2024/02/22 05:19:47;;;;;;;1.17;0.50;;;18.90;59.00;;;;;;5019318;28;20040;-47
2024/02/22 05:22:13;;;;;;;0.75;0.52;;;18.90;59.10;;;;;;5010796;28;20174;-48
2024/02/22 05:24:38;;;;;;;0.65;0.55;;;18.90;59.10;;;;;;5011569;28;20235;-50
2024/02/22 05:27:04;;;;;;;1.25;0.50;;;18.90;59.00;;;;;;5012181;28;20826;-53
2024/02/22 05:29:30;;;;;;;1.25;0.60;;;19.00;59.20;;;;;;5010238;28;20041;-48
2024/02/22 05:31:57;;;;;;;1.42;0.60;;;19.00;59.00;;;;;;5006828;28;20388;-48
2024/02/22 05:34:25;;;;;;;1.20;0.70;;;19.00;59.00;;;;;;5012482;28;20100;-47
2024/02/22 05:36:50;;;;;;;1.33;0.47;;;19.00;59.10;;;;;;5008746;28;20121;-48
2024/02/22 05:39:16;;;;;;;0.88;0.70;;;19.00;59.10;;;;;;5002638;28;20120;-48
2024/02/22 05:41:42;;;;;;;1.05;0.40;;;19.00;59.20;;;;;;5007148;28;20045;-48
2024/02/22 05:44:07;;;;;;;1.67;0.60;;;19.00;59.10;;;;;;5009653;28;20131;-50
2024/02/22 05:46:33;;;;;;;1.08;0.57;;;18.90;59.10;;;;;;5007467;28;20033;-48
2024/02/22 05:48:58;;;;;;;1.70;0.90;;;18.90;59.10;;;;;;5009459;28;20403;-53
2024/02/22 05:51:25;;;;;;;2.38;0.50;;;18.90;59.10;;;;;;5014142;28;20026;-48
2024/02/22 05:53:52;;;;;;;0.93;0.65;;;18.90;59.10;;;;;;5015033;28;20100;-51
2024/02/22 05:56:17;;;;;;;1.23;0.50;;;18.90;59.10;;;;;;5013945;28;20032;-49
2024/02/22 05:58:43;;;;;;;2.58;0.80;;;18.90;59.10;;;;;;5012876;28;20026;-51
2024/02/22 06:01:09;;;;;;;0.95;0.52;;;19.00;59.20;;;;;;5009155;28;20045;-50
2024/02/22 06:03:34;;;;;;;0.88;0.40;;;18.90;59.10;;;;;;5011185;28;20104;-47
2024/02/22 06:06:00;;;;;;;2.90;0.50;;;18.90;59.10;;;;;;5009936;28;20103;-53
2024/02/22 06:08:25;;;;;;;1.10;0.63;;;18.90;59.10;;;;;;5003663;28;20363;-48
2024/02/22 06:10:54;;;;;;;1.60;0.40;;;18.90;59.10;;;;;;5007745;28;20029;-55
2024/02/22 06:13:19;;;;;;;0.73;0.60;;;18.90;59.10;;;;;;5013070;28;20029;-49
2024/02/22 06:15:45;;;;;;;1.08;0.68;;;18.90;59.10;;;;;;5011297;28;20098;-48
2024/02/22 06:18:10;;;;;;;2.75;0.50;;;18.90;59.10;;;;;;5012185;28;20708;-50
2024/02/22 06:20:36;;;;;;;2.50;0.60;;;18.90;59.10;;;;;;5008204;28;20412;-48
2024/02/22 06:23:03;;;;;;;1.63;0.55;;;18.90;59.10;;;;;;5008849;28;20116;-51
2024/02/22 06:25:29;;;;;;;1.33;0.73;;;18.90;59.10;;;;;;5007139;28;20040;-48
2024/02/22 06:27:55;;;;;;;1.23;0.68;;;18.90;59.10;;;;;;4992841;28;20038;-55
2024/02/22 06:30:21;;;;;;;1.17;0.73;;;18.90;59.10;;;;;;5000003;28;20044;-47
2024/02/22 06:32:47;;;;;;;1.02;0.50;;;18.90;59.10;;;;;;4992928;28;20500;-50
2024/02/22 06:35:13;;;;;;;0.98;0.50;;;18.90;59.10;;;;;;5006950;28;20092;-50
2024/02/22 06:37:38;;;;;;;1.65;0.80;;;18.90;59.10;;;;;;5006536;28;20033;-51
2024/02/22 06:40:08;;;;;;;2.55;0.70;;;18.90;59.10;;;;;;5007722;28;20041;-49
2024/02/22 06:42:34;;;;;;;4.78;0.70;;;18.90;59.20;;;;;;5010327;28;20037;-49
2024/02/22 06:45:00;;;;;;;2.60;0.65;;;19.00;59.60;;;;;;5010600;28;20120;-47
2024/02/22 06:47:25;;;;;;;2.85;0.80;;;19.00;59.90;;;;;;5004886;28;20748;-50
2024/02/22 06:49:51;;;;;;;2.70;0.80;;;19.00;59.90;;;;;;5009854;28;20045;-53
2024/02/22 06:52:16;;;;;;;4.45;0.80;;;18.90;59.80;;;;;;5013110;28;20554;-54
2024/02/22 06:54:42;;;;;;;2.65;0.90;;;18.90;60.00;;;;;;4993636;28;20029;-51
2024/02/22 06:57:08;;;;;;;6.35;1.08;;;18.90;60.40;;;;;;5011047;28;20033;-53
2024/02/22 06:59:33;;;;;;;4.05;0.85;;;18.90;60.50;;;;;;5008692;28;20095;-51
2024/02/22 07:01:59;;;;;;;5.05;1.20;;;18.90;60.60;;;;;;5004212;28;20037;-53
2024/02/22 07:04:24;;;;;;;5.38;1.25;;;18.90;60.60;;;;;;5005704;28;20666;-53
2024/02/22 07:06:50;;;;;;;6.25;1.38;;;18.90;60.60;;;;;;5008911;28;20029;-57
2024/02/22 07:09:15;;;;;;;6.80;0.93;;;18.80;60.30;;;;;;5006889;28;20087;-50
2024/02/22 07:11:41;;;;;;;6.45;1.10;;;18.80;60.30;;;;;;5006539;28;20492;-48
2024/02/22 07:14:06;;;;;;;3.95;1.13;;;18.80;60.30;;;;;;5009394;28;20037;-56
2024/02/22 07:16:32;;;;;;;2.83;1.02;;;18.80;60.10;;;;;;5010191;28;20537;-48
2024/02/22 07:18:58;;;;;;;2.63;0.80;;;18.80;60.00;;;;;;4989881;28;20061;-53
2024/02/22 07:21:30;;;;;;;7.00;0.93;;;18.80;59.90;;;;;;5009169;28;20056;-52
2024/02/22 07:23:56;;;;;;;4.43;0.90;;;18.80;59.90;;;;;;5002292;28;20030;-52
2024/02/22 07:26:22;;;;;;;7.35;1.45;;;18.80;59.80;;;;;;5005952;28;20048;-50
2024/02/22 07:28:47;;;;;;;6.00;1.00;;;18.80;60.50;;;;;;5007288;28;20061;-50
2024/02/22 07:31:13;;;;;;;2.40;1.02;;;18.90;60.80;;;;;;5013160;28;20076;-51
2024/02/22 07:33:38;;;;;;;5.18;1.17;;;18.90;60.90;;;;;;5008146;28;20038;-50
2024/02/22 07:36:04;;;;;;;2.15;0.73;;;18.90;60.90;;;;;;5011501;28;20487;-51
2024/02/22 07:38:30;;;;;;;1.83;0.70;;;18.90;60.90;;;;;;5012788;28;20042;-49
2024/02/22 07:40:56;;;;;;;4.35;1.00;;;18.90;60.90;;;;;;5008643;28;20041;-58
2024/02/22 07:43:21;;;;;;;2.05;0.90;;;18.90;60.80;;;;;;5015015;28;20025;-48
2024/02/22 07:45:47;;;;;;;3.38;0.90;;;18.90;60.90;;;;;;5009079;28;20061;-47
2024/02/22 07:48:13;;;;;;;2.58;0.85;;;18.90;60.80;;;;;;5009692;28;20674;-55
2024/02/22 07:50:39;;;;;;;2.47;0.90;;;18.90;60.80;;;;;;5013999;28;20046;-48
2024/02/22 07:53:06;;;;;;;3.38;0.80;;;18.90;60.70;;;;;;5009718;28;20037;-53
2024/02/22 07:55:31;;;;;;;2.22;0.80;;;18.90;60.70;;;;;;5011072;28;20049;-53
2024/02/22 07:57:57;;;;;;;4.38;0.80;;;18.90;60.70;;;;;;5013548;28;20041;-47
2024/02/22 08:00:22;;;;;;;4.22;1.38;;;18.90;60.70;;;;;;5009365;28;20049;-49
2024/02/22 08:02:48;;;;;;;4.43;0.90;;;18.90;60.70;;;;;;5006589;28;20033;-50
2024/02/22 08:05:16;;;;;;;3.47;0.90;;;19.00;60.70;;;;;;5008458;28;20675;-50
2024/02/22 08:07:42;;;;;;;4.60;0.70;;;19.00;60.60;;;;;;5011246;28;20030;-47
2024/02/22 08:10:08;;;;;;;3.05;0.73;;;19.00;60.50;;;;;;5007728;28;20119;-50
2024/02/22 08:12:34;;;;;;;2.97;0.93;;;19.00;60.40;;;;;;5014995;28;20538;-49
2024/02/22 08:15:01;;;;;;;3.15;0.80;;;19.10;60.50;;;;;;5009232;28;20053;-50
2024/02/22 08:17:28;;;;;;;1.80;0.70;;;19.10;60.40;;;;;;5008193;28;20030;-48
2024/02/22 08:19:53;;;;;;;3.17;0.82;;;19.20;60.30;;;;;;5011797;28;20045;-50
2024/02/22 08:22:19;;;;;;;6.15;1.05;;;19.20;60.30;;;;;;5011527;28;20969;-48
2024/02/22 08:24:44;;;;;;;1.15;0.70;;;19.20;60.20;;;;;;5011267;28;20064;-48
2024/02/22 08:27:10;;;;;;;4.10;1.35;;;19.20;60.10;;;;;;5010400;28;20050;-48
2024/02/22 08:29:36;;;;;;;1.30;0.60;;;19.20;60.00;;;;;;5007227;28;20104;-49
2024/02/22 08:32:04;;;;;;;3.70;0.93;;;19.20;60.10;;;;;;5009217;28;20026;-49
2024/02/22 08:34:29;;;;;;;2.13;0.60;;;19.30;60.00;;;;;;5007643;28;20124;-49
2024/02/22 08:36:55;;;;;;;1.40;0.65;;;19.30;60.00;;;;;;5010269;28;20113;-49
2024/02/22 08:39:20;;;;;;;2.75;0.80;;;19.30;59.90;;;;;;5012471;28;20464;-58
2024/02/22 08:41:46;;;;;;;3.45;0.73;;;19.30;59.90;;;;;;5006306;28;20030;-48
2024/02/22 08:44:11;;;;;;;2.58;0.70;;;19.30;59.80;;;;;;5016404;28;20065;-48
2024/02/22 08:46:37;;;;;;;3.95;0.80;;;19.30;59.80;;;;;;5003480;28;20064;-50
2024/02/22 08:49:02;;;;;;;1.42;0.73;;;19.30;59.70;;;;;;5013056;28;20040;-48
2024/02/22 08:51:28;;;;;;;2.67;0.70;;;19.30;59.60;;;;;;5006570;28;20512;-50
2024/02/22 08:53:53;;;;;;;3.38;0.77;;;19.40;59.70;;;;;;5012693;28;20361;-48
2024/02/22 08:56:19;;;;;;;0.90;0.57;;;19.40;59.60;;;;;;5008917;28;20053;-50
2024/02/22 08:58:44;;;;;;;1.55;0.70;;;19.40;59.70;;;;;;5011128;28;20117;-49
2024/02/22 09:01:11;;;;;;;3.20;0.50;;;19.40;59.60;;;;;;5007782;28;20109;-50
2024/02/22 09:03:36;;;;;;;3.58;0.68;;;19.40;59.50;;;;;;5014972;28;20082;-48
2024/02/22 09:06:02;;;;;;;2.20;0.60;;;19.40;59.50;;;;;;5001041;28;20045;-56
2024/02/22 09:08:27;;;;;;;1.05;0.55;;;19.40;59.40;;;;;;5014019;28;20072;-49
2024/02/22 09:10:53;;;;;;;0.63;0.40;;;19.50;59.50;;;;;;5007994;28;20071;-49
2024/02/22 09:13:19;;;;;;;3.75;0.93;;;19.40;59.40;;;;;;5011924;28;20037;-50
2024/02/22 09:15:51;;;;;;;1.50;0.82;;;19.40;59.30;;;;;;5004907;28;20124;-49
2024/02/22 09:18:17;;;;;;;3.58;0.95;;;19.40;59.20;;;;;;5010891;28;20519;-48
2024/02/22 09:20:43;;;;;;;1.35;0.52;;;19.40;59.10;;;;;;5005383;28;20146;-49
2024/02/22 09:23:08;;;;;;;4.05;0.90;;;19.40;59.10;;;;;;5012856;28;20638;-49
2024/02/22 09:25:34;;;;;;;3.47;0.52;;;19.40;59.10;;;;;;5007299;28;20022;-49
2024/02/22 09:28:00;;;;;;;3.97;0.75;;;19.40;58.90;;;;;;5016243;28;20629;-49
2024/02/22 09:30:25;;;;;;;4.50;0.80;;;19.50;59.00;;;;;;5007950;28;20056;-48
2024/02/22 09:32:51;;;;;;;2.63;0.65;;;19.40;59.00;;;;;;5010558;28;20033;-53
2024/02/22 09:35:17;;;;;;;6.80;0.60;;;19.50;59.10;;;;;;5009497;28;20386;-50
2024/02/22 09:37:43;;;;;;;2.08;0.73;;;19.50;59.20;;;;;;5011326;28;20121;-49
2024/02/22 09:40:09;;;;;;;6.30;1.08;;;19.50;59.10;;;;;;5009732;28;20037;-50
2024/02/22 09:42:35;;;;;;;3.63;0.75;;;19.50;59.10;;;;;;5004702;28;20036;-50
2024/02/22 09:45:02;;;;;;;1.45;0.75;;;19.50;59.10;;;;;;5007158;28;20069;-50
2024/02/22 09:47:28;;;;;;;0.93;0.50;;;19.50;59.00;;;;;;5008071;28;20033;-51
2024/02/22 09:49:54;;;;;;;3.13;0.60;;;19.50;59.10;;;;;;5012497;28;20052;-57
2024/02/22 09:52:21;;;;;;;1.23;0.40;;;19.60;59.10;;;;;;5003580;28;20574;-50
2024/02/22 09:54:47;;;;;;;2.85;0.70;;;19.50;59.00;;;;;;4987750;28;20045;-50
2024/02/22 09:57:13;;;;;;;1.67;0.70;;;19.50;59.00;;;;;;5007270;28;20061;-49
2024/02/22 09:59:50;;;;;;;1.98;0.60;;;19.50;59.00;;;;;;4990978;28;20049;-49
2024/02/22 10:02:16;;;;;;;2.92;0.55;;;19.60;59.10;;;;;;5010948;28;20034;-52
2024/02/22 10:04:58;;;;;;;1.63;0.70;;;19.60;59.10;;;;;;5007984;28;20099;-50
2024/02/22 10:07:25;;;;;;;1.50;0.60;;;19.60;59.20;;;;;;5004319;28;20055;-50
2024/02/22 10:09:52;;;;;;;1.65;0.55;;;19.60;59.10;;;;;;4971289;28;20033;-51
2024/02/22 10:12:28;;;;;;;2.70;0.47;;;19.60;59.20;;;;;;4991016;28;20066;-50
2024/02/22 10:14:54;;;;;;;1.92;0.70;;;19.50;59.20;;;;;;4986541;28;20547;-48
2024/02/22 10:17:31;;;;;;;3.17;0.50;;;19.60;59.30;;;;;;4973710;28;20049;-49
2024/02/22 10:20:03;;;;;;;3.28;0.70;;;19.50;59.30;;;;;;4996160;28;20460;-48
2024/02/22 10:22:29;;;;;;;2.90;0.40;;;19.50;59.30;;;;;;5009019;28;20042;-50
2024/02/22 10:25:08;;;;;;;1.92;0.50;;;19.60;59.40;;;;;;5007726;28;20049;-48
2024/02/22 10:30:18;;;;;;;1.77;0.73;;;19.60;59.50;;;;;;5026410;28;20032;-50
2024/02/22 10:32:45;;;;;;;3.83;0.60;;;19.60;59.50;;;;;;5011324;28;20133;-50
2024/02/22 10:35:12;;;;;;;3.75;0.98;;;19.60;59.50;;;;;;5027684;28;20029;-49
2024/02/22 10:37:37;;;;;;;2.50;0.70;;;19.60;59.60;;;;;;5026678;28;20044;-49
2024/02/22 10:40:05;;;;;;;4.82;0.55;;;19.60;59.60;;;;;;5030659;28;20064;-51
2024/02/22 10:42:30;;;;;;;3.20;0.70;;;19.60;59.80;;;;;;5030226;28;20036;-50
2024/02/22 10:44:56;;;;;;;6.18;0.82;;;19.60;59.90;;;;;;5029278;28;20534;-48
2024/02/22 10:47:23;;;;;;;5.93;0.77;;;19.60;60.00;;;;;;5026134;28;20059;-53
2024/02/22 10:49:49;;;;;;;2.42;0.47;;;19.60;60.10;;;;;;5026178;28;20120;-48
2024/02/22 10:52:18;;;;;;;4.43;0.85;;;19.60;60.20;;;;;;5033785;28;20591;-49
2024/02/22 10:54:48;;;;;;;1.45;0.52;;;19.70;60.20;;;;;;5028382;28;20690;-49
2024/02/22 10:57:16;;;;;;;1.15;0.57;;;19.60;60.30;;;;;;5026714;28;20037;-50
2024/02/22 10:59:44;;;;;;;2.67;0.60;;;19.60;60.30;;;;;;5025670;28;20041;-49
2024/02/22 11:02:10;;;;;;;11.93;1.05;;;19.60;61.00;;;;;;5029088;28;20029;-49
2024/02/22 11:04:36;;;;;;;2.38;0.70;;;19.70;60.40;;;;;;5026517;28;20060;-49
2024/02/22 11:07:07;;;;;;;3.30;0.50;;;19.70;60.50;;;;;;5031737;28;20053;-50
2024/02/22 11:09:46;;;;;;;5.95;0.60;;;19.70;60.40;;;;;;5029828;28;20029;-50
2024/02/22 11:12:13;;;;;;;3.15;0.57;;;19.70;60.60;;;;;;5032734;28;20029;-50
2024/02/22 11:14:40;;;;;;;2.20;0.40;;;19.60;60.50;;;;;;5034182;28;20119;-50
2024/02/22 11:17:26;;;;;;;6.13;0.68;;;19.60;60.40;;;;;;5033031;28;20440;-49
2024/02/22 11:19:54;;;;;;;3.45;0.55;;;19.60;60.30;;;;;;5018460;28;20057;-49
2024/02/22 11:22:20;;;;;;;0.90;0.50;;;19.60;60.20;;;;;;4993524;28;20156;-48
2024/02/22 11:24:47;;;;;;;3.50;0.70;;;19.50;60.10;;;;;;5029885;28;20045;-49
2024/02/22 11:27:16;;;;;;;1.98;0.50;;;19.60;60.10;;;;;;5032422;28;20191;-50
2024/02/22 11:29:42;;;;;;;4.18;0.70;;;19.50;60.00;;;;;;5033086;28;20061;-49
2024/02/22 11:32:07;;;;;;;2.03;0.40;;;19.50;60.00;;;;;;5029930;28;21025;-49
2024/02/22 11:34:36;;;;;;;1.60;0.75;;;19.60;60.00;;;;;;5013744;28;20093;-49
2024/02/22 11:37:16;;;;;;;3.60;0.50;;;19.60;60.00;;;;;;5030464;28;20597;-50
2024/02/22 11:39:42;;;;;;;2.05;0.38;;;19.50;59.90;;;;;;5030965;28;20794;-49
2024/02/22 11:42:14;;;;;;;2.55;0.50;;;19.60;59.90;;;;;;5024888;28;20033;-49
2024/02/22 11:44:39;;;;;;;2.25;0.50;;;19.60;59.90;;;;;;5029780;28;20033;-50
2024/02/22 11:47:06;;;;;;;1.17;0.55;;;19.50;59.90;;;;;;5027379;28;20030;-49
2024/02/22 11:49:32;;;;;;;1.10;0.30;;;19.50;59.90;;;;;;5031893;28;20029;-51
2024/02/22 11:51:58;;;;;;;1.92;0.43;;;19.50;59.80;;;;;;5036063;28;20037;-50
2024/02/22 11:54:24;;;;;;;1.38;0.52;;;19.50;59.80;;;;;;5032805;28;20106;-49
2024/02/22 11:56:50;;;;;;;3.40;0.68;;;19.50;59.80;;;;;;5034105;28;20483;-47
2024/02/22 11:59:15;;;;;;;1.77;0.43;;;19.50;59.90;;;;;;5019375;28;20045;-47
2024/02/22 12:01:42;;;;;;;2.50;0.85;;;19.50;59.90;;;;;;5029718;28;20037;-50
2024/02/22 12:04:08;;;;;;;0.95;0.43;;;19.40;59.90;;;;;;5014849;28;20029;-50
2024/02/22 12:06:34;;;;;;;3.67;0.45;;;19.40;59.90;;;;;;5033253;28;20036;-50
2024/02/22 12:09:00;;;;;;;1.65;0.60;;;19.40;60.00;;;;;;5030446;28;20557;-51
2024/02/22 12:11:25;;;;;;;0.75;0.40;;;19.40;60.10;;;;;;5032725;28;20091;-53
2024/02/22 12:13:58;;;;;;;0.73;0.30;;;19.30;60.10;;;;;;5011528;28;20017;-49
2024/02/22 12:16:26;;;;;;;2.15;0.60;;;19.30;60.20;;;;;;4997633;28;20040;-50
2024/02/22 12:18:52;;;;;;;0.90;0.50;;;19.30;60.20;;;;;;5031207;28;20044;-51
2024/02/22 12:21:24;;;;;;;1.27;0.52;;;19.30;60.30;;;;;;5018213;28;20552;-53
2024/02/22 12:23:50;;;;;;;1.55;0.45;;;19.30;60.20;;;;;;5029355;28;20768;-50
2024/02/22 12:26:18;;;;;;;1.25;0.40;;;19.20;60.20;;;;;;5030638;28;20053;-50
2024/02/22 12:28:50;;;;;;;2.17;0.40;;;19.30;60.30;;;;;;5028398;28;20044;-50
2024/02/22 12:31:23;;;;;;;3.97;0.40;;;19.30;60.20;;;;;;5026894;28;20541;-50
2024/02/22 12:33:50;;;;;;;0.98;0.40;;;19.20;60.20;;;;;;5033276;28;20033;-50
2024/02/22 12:36:17;;;;;;;0.98;0.30;;;19.30;60.20;;;;;;5027901;28;20035;-51
2024/02/22 12:38:44;;;;;;;1.95;0.70;;;19.30;60.20;;;;;;5031762;28;20045;-49
2024/02/22 12:41:10;;;;;;;0.38;0.30;;;19.20;60.10;;;;;;5029293;28;20075;-50
2024/02/22 12:43:36;;;;;;;1.10;0.47;;;19.20;60.10;;;;;;5029284;28;20029;-50
2024/02/22 12:46:02;;;;;;;1.10;0.28;;;19.20;60.10;;;;;;5029959;28;20083;-49